Time;durP1;ratioP1;P1;durP2;ratioP2;P2;SDS_P1;SDS_P2;PMS_P1;PMS_P2;Temp;Humidity;BMP_temperature;BMP_pressure;BME280_temperature;BME280_humidity;BME280_pressure;Samples;Min_cycle;Max_cycle;Signal;HPM_P1;HPM_P2
2021/12/06 00:00:34;;;;;;;64.90;33.75;;;;;;;9.44;89.72;99154.66;5141732;28;20043;-66
2021/12/06 00:03:04;;;;;;;65.33;33.87;;;;;;;9.58;88.71;99153.13;5134668;28;20042;-63
2021/12/06 00:05:31;;;;;;;71.13;33.90;;;;;;;9.26;89.78;99135.50;5122027;28;20077;-66
2021/12/06 00:07:57;;;;;;;77.85;37.28;;;;;;;9.30;90.34;99152.66;5120873;28;20041;-65
2021/12/06 00:10:22;;;;;;;74.57;35.97;;;;;;;9.21;91.58;99162.41;5135513;27;20102;-66
2021/12/06 00:12:48;;;;;;;80.07;34.92;;;;;;;9.14;92.58;99156.16;5131958;27;20039;-63
2021/12/06 00:15:13;;;;;;;79.38;35.63;;;;;;;9.12;92.69;99149.38;5145290;27;20108;-65
2021/12/06 00:17:39;;;;;;;74.65;34.20;;;;;;;9.23;92.94;99156.97;5145497;27;20031;-63
2021/12/06 00:20:08;;;;;;;79.97;35.78;;;;;;;9.22;92.60;99135.00;5126769;27;20040;-63
2021/12/06 00:22:34;;;;;;;74.13;36.15;;;;;;;9.33;92.38;99147.03;5107513;28;20019;-63
2021/12/06 00:25:00;;;;;;;77.28;35.67;;;;;;;9.31;92.34;99150.84;5128952;27;20038;-66
2021/12/06 00:27:26;;;;;;;73.40;33.97;;;;;;;9.39;92.81;99156.97;5133307;27;20024;-66
2021/12/06 00:29:53;;;;;;;75.13;36.00;;;;;;;9.55;91.71;99166.69;5141508;27;20042;-66
2021/12/06 00:32:19;;;;;;;69.97;33.75;;;;;;;9.54;91.65;99165.84;5145216;27;20033;-63
2021/12/06 00:34:45;;;;;;;71.63;31.88;;;;;;;9.35;93.49;99162.72;5117065;27;20035;-66
2021/12/06 00:37:29;;;;;;;72.90;33.55;;;;;;;9.23;93.90;99172.81;5132691;27;20035;-63
2021/12/06 00:39:57;;;;;;;80.80;35.03;;;;;;;9.13;94.97;99174.81;5134176;27;20031;-66
2021/12/06 00:42:27;;;;;;;83.82;34.60;;;;;;;9.30;94.53;99160.59;5137944;27;20052;-63
2021/12/06 00:44:53;;;;;;;84.90;35.67;;;;;;;9.49;93.74;99167.34;5145228;27;20320;-66
2021/12/06 00:47:19;;;;;;;83.10;35.00;;;;;;;9.59;92.62;99162.69;5124417;27;20027;-66
2021/12/06 00:49:46;;;;;;;85.63;36.10;;;;;;;9.45;93.05;99163.41;5130256;27;20035;-66
2021/12/06 00:52:12;;;;;;;83.88;36.55;;;;;;;9.23;94.66;99162.25;5130926;27;20267;-66
2021/12/06 00:54:38;;;;;;;88.47;38.58;;;;;;;9.27;94.72;99160.94;5132956;27;20040;-64
2021/12/06 00:57:06;;;;;;;94.50;35.17;;;;;;;9.27;95.29;99155.63;5137538;27;20107;-64
2021/12/06 00:59:32;;;;;;;92.68;36.72;;;;;;;9.21;95.66;99143.09;5145300;27;20023;-66
2021/12/06 01:02:00;;;;;;;101.55;38.08;;;;;;;8.89;98.03;99150.06;5134718;27;20116;-63
2021/12/06 01:04:28;;;;;;;91.00;37.42;;;;;;;8.92;98.79;99151.56;5133172;27;20030;-66
2021/12/06 01:06:53;;;;;;;106.15;39.13;;;;;;;8.83;98.67;99142.00;5136579;27;20062;-66
2021/12/06 01:09:19;;;;;;;103.35;40.20;;;;;;;9.03;99.10;99139.84;5132274;27;20284;-63
2021/12/06 01:11:44;;;;;;;108.72;38.83;;;;;;;8.88;100.00;99132.59;5133706;27;20228;-64
2021/12/06 01:14:10;;;;;;;121.70;40.17;;;;;;;9.12;99.23;99117.69;5132326;27;20034;-63
2021/12/06 01:16:35;;;;;;;116.40;40.13;;;;;;;9.35;97.40;99125.75;5134347;27;20250;-63
2021/12/06 01:19:01;;;;;;;117.80;38.67;;;;;;;9.35;96.64;99129.22;5131147;27;20033;-63
2021/12/06 01:21:40;;;;;;;120.57;38.20;;;;;;;9.35;96.77;99123.09;5128643;27;20035;-66
2021/12/06 01:24:07;;;;;;;124.50;38.35;;;;;;;9.30;97.59;99128.88;5137273;27;20327;-63
2021/12/06 01:32:13;;;;;;;125.13;40.20;;;;;;;8.86;100.00;99118.72;5131209;27;20031;-64
2021/12/06 01:40:05;;;;;;;149.88;42.22;;;;;;;8.85;100.00;99116.25;5131234;27;20092;-64
2021/12/06 01:42:30;;;;;;;131.23;40.58;;;;;;;8.96;100.00;99118.56;5129962;27;20259;-63
2021/12/06 01:44:57;;;;;;;140.68;40.20;;;;;;;9.03;100.00;99103.69;5134108;27;20039;-63
2021/12/06 01:47:29;;;;;;;129.95;38.78;;;;;;;9.01;99.88;99105.66;5127887;27;20042;-63
2021/12/06 01:50:20;;;;;;;134.50;40.97;;;;;;;9.03;100.00;99119.53;5141459;27;20240;-66
2021/12/06 01:52:53;;;;;;;122.03;39.40;;;;;;;9.21;99.70;99116.69;5132429;27;20341;-63
2021/12/06 01:55:38;;;;;;;131.20;38.72;;;;;;;9.34;99.05;99109.06;5143733;27;20056;-66
2021/12/06 01:58:06;;;;;;;143.30;41.33;;;;;;;9.37;97.79;99100.81;5138553;27;20036;-64
2021/12/06 02:00:39;;;;;;;137.30;42.28;;;;;;;9.04;99.22;99088.66;5131573;27;20107;-63
2021/12/06 02:03:06;;;;;;;155.82;45.03;;;;;;;8.74;100.00;99083.09;5130428;27;20087;-66
2021/12/06 02:05:32;;;;;;;159.55;42.42;;;;;;;8.92;100.00;99101.38;5135145;27;20063;-66
2021/12/06 02:07:58;;;;;;;179.00;44.13;;;;;;;8.91;100.00;99097.94;5130195;27;20020;-63
2021/12/06 02:10:24;;;;;;;172.82;45.08;;;;;;;8.93;100.00;99100.41;5135280;27;20038;-63
2021/12/06 02:12:53;;;;;;;155.88;43.15;;;;;;;8.92;100.00;99089.00;5131690;27;20040;-63
2021/12/06 02:17:55;;;;;;;132.38;39.03;;;;;;;9.01;100.00;99094.28;5130140;27;20069;-64
2021/12/06 02:20:27;;;;;;;129.43;38.33;;;;;;;9.00;100.00;99090.00;5121556;27;20233;-66
2021/12/06 02:22:55;;;;;;;130.27;36.05;;;;;;;8.90;100.00;99091.00;5134079;27;20058;-66
2021/12/06 02:25:21;;;;;;;120.50;36.15;;;;;;;8.81;100.00;99070.06;5131410;27;20027;-66
2021/12/06 02:27:49;;;;;;;131.48;37.92;;;;;;;8.78;100.00;99075.66;5132813;27;20087;-66
2021/12/06 02:30:17;;;;;;;156.10;39.17;;;;;;;8.85;100.00;99077.47;5133073;27;20221;-66
2021/12/06 02:32:43;;;;;;;149.25;39.17;;;;;;;8.90;100.00;99077.78;5130469;27;20095;-64
2021/12/06 02:35:14;;;;;;;154.00;42.33;;;;;;;8.92;100.00;99093.47;5130717;27;20039;-64
2021/12/06 02:37:39;;;;;;;160.68;39.35;;;;;;;9.00;100.00;99087.34;5127797;27;20035;-63
2021/12/06 02:40:22;;;;;;;153.45;40.67;;;;;;;8.87;100.00;99049.09;5142777;27;20042;-66
2021/12/06 02:42:48;;;;;;;163.93;40.38;;;;;;;9.36;100.00;99069.25;5140072;27;20156;-63
2021/12/06 02:45:16;;;;;;;220.57;45.75;;;;;;;9.28;100.00;99076.22;5116883;27;20043;-64
2021/12/06 02:47:42;;;;;;;201.05;45.13;;;;;;;9.02;100.00;99065.06;5130220;27;20294;-66
2021/12/06 02:50:10;;;;;;;294.55;49.60;;;;;;;9.08;100.00;99050.38;5132480;27;20059;-66
2021/12/06 02:52:37;;;;;;;326.52;48.67;;;;;;;8.99;100.00;99040.81;5128865;27;20030;-63
2021/12/06 02:55:11;;;;;;;298.95;47.80;;;;;;;8.67;100.00;99046.97;5134428;27;20038;-64
2021/12/06 02:57:38;;;;;;;327.92;52.25;;;;;;;8.55;100.00;99059.69;5140262;27;20027;-66
2021/12/06 03:00:09;;;;;;;291.40;47.03;;;;;;;8.58;100.00;99059.34;5133109;27;20061;-63
2021/12/06 03:02:35;;;;;;;347.13;49.13;;;;;;;8.76;100.00;99060.00;5128557;27;20019;-63
2021/12/06 03:05:00;;;;;;;365.90;49.58;;;;;;;8.75;100.00;99063.63;5132930;27;20091;-66
2021/12/06 03:07:28;;;;;;;258.50;50.50;;;;;;;8.99;100.00;99057.47;5134900;27;20015;-63
2021/12/06 03:09:55;;;;;;;302.80;51.58;;;;;;;9.13;100.00;99058.59;5127461;27;20039;-66
2021/12/06 03:12:24;;;;;;;256.27;42.72;;;;;;;9.18;100.00;99065.03;5120014;27;20064;-63
2021/12/06 03:14:54;;;;;;;204.00;45.13;;;;;;;9.32;100.00;99082.00;5142381;27;20127;-64
2021/12/06 03:17:22;;;;;;;243.95;45.22;;;;;;;9.21;100.00;99051.47;5134363;27;20027;-64
2021/12/06 03:19:48;;;;;;;244.80;48.25;;;;;;;9.59;100.00;99080.75;5131038;27;20039;-66
2021/12/06 03:22:16;;;;;;;184.48;47.30;;;;;;;9.75;100.00;99091.25;5129812;27;20053;-64
2021/12/06 03:24:43;;;;;;;218.38;47.50;;;;;;;9.89;100.00;99084.41;5134384;27;20210;-63
2021/12/06 03:27:10;;;;;;;215.27;46.58;;;;;;;10.04;99.50;99076.56;5130262;27;20100;-63
2021/12/06 03:29:38;;;;;;;233.80;43.92;;;;;;;10.08;98.45;99081.31;5130389;27;20032;-64
2021/12/06 03:32:04;;;;;;;188.02;45.75;;;;;;;10.24;97.63;99061.91;5134589;27;20362;-64
2021/12/06 03:34:29;;;;;;;181.98;42.92;;;;;;;10.45;94.98;99063.94;5129336;27;20325;-64
2021/12/06 03:36:56;;;;;;;230.13;45.05;;;;;;;10.30;95.53;99052.44;5114037;27;20054;-66
2021/12/06 03:39:30;;;;;;;214.07;44.95;;;;;;;10.42;95.04;99049.22;5111468;28;20309;-66
2021/12/06 03:42:00;;;;;;;242.98;43.38;;;;;;;10.19;96.35;99045.69;5129997;27;20031;-66
2021/12/06 03:44:26;;;;;;;271.15;44.45;;;;;;;10.15;97.68;99055.00;5141691;27;20380;-64
2021/12/06 03:46:57;;;;;;;216.80;47.50;;;;;;;10.20;97.62;99044.72;5136507;27;20043;-66
2021/12/06 03:49:23;;;;;;;220.70;45.55;;;;;;;10.28;96.66;99049.16;5112902;28;20030;-66
2021/12/06 03:51:49;;;;;;;216.07;47.53;;;;;;;10.32;96.08;99066.31;5131562;28;20368;-66
2021/12/06 03:54:19;;;;;;;292.58;46.20;;;;;;;10.32;96.24;99067.13;5131052;28;20182;-63
2021/12/06 03:56:45;;;;;;;229.07;46.13;;;;;;;10.19;96.37;99067.69;5130618;28;20027;-64
2021/12/06 03:59:11;;;;;;;303.70;45.45;;;;;;;10.34;96.49;99065.13;5130726;28;20027;-64
2021/12/06 04:01:38;;;;;;;202.63;46.63;;;;;;;10.40;96.38;99066.25;5126509;27;20023;-66
2021/12/06 04:04:05;;;;;;;192.73;43.97;;;;;;;10.51;95.03;99069.34;5130969;28;20324;-66
2021/12/06 04:06:32;;;;;;;194.88;44.50;;;;;;;10.43;94.43;99056.16;5141330;28;20038;-66
2021/12/06 04:08:58;;;;;;;191.52;44.55;;;;;;;10.53;94.48;99055.91;5139142;28;20264;-63
2021/12/06 04:11:25;;;;;;;182.30;44.00;;;;;;;10.73;91.89;99062.34;5125843;28;20382;-66
2021/12/06 04:13:50;;;;;;;169.98;43.22;;;;;;;10.56;93.18;99066.16;5126591;27;20357;-66
2021/12/06 04:16:17;;;;;;;167.05;39.85;;;;;;;10.61;92.39;99055.03;5127638;28;20035;-63
2021/12/06 04:18:43;;;;;;;135.88;37.90;;;;;;;10.50;92.74;99058.91;5131341;28;20070;-66
2021/12/06 04:21:09;;;;;;;124.50;36.08;;;;;;;10.44;93.01;99076.34;5128843;28;20054;-66
2021/12/06 04:23:36;;;;;;;106.28;34.28;;;;;;;10.45;92.34;99077.97;5132854;28;20064;-64
2021/12/06 04:26:03;;;;;;;106.80;34.13;;;;;;;10.47;92.27;99073.34;5128750;28;20043;-66
2021/12/06 04:28:31;;;;;;;95.60;32.20;;;;;;;10.54;92.14;99049.63;5129140;28;20232;-63
2021/12/06 04:30:57;;;;;;;100.57;34.83;;;;;;;10.48;91.03;99056.44;5132259;28;20213;-66
2021/12/06 04:33:23;;;;;;;97.93;35.10;;;;;;;10.58;90.45;99063.31;5131681;28;20031;-66
2021/12/06 04:35:49;;;;;;;99.60;34.63;;;;;;;10.52;89.70;99056.91;5129152;28;20071;-63
2021/12/06 04:38:15;;;;;;;96.47;34.67;;;;;;;10.48;90.38;99063.56;5127908;28;20035;-66
2021/12/06 04:40:40;;;;;;;97.93;35.03;;;;;;;10.47;89.72;99070.69;5129467;28;20055;-64
2021/12/06 04:43:07;;;;;;;92.18;34.00;;;;;;;10.58;89.56;99068.63;5129461;28;20035;-64
2021/12/06 04:45:33;;;;;;;98.45;36.47;;;;;;;10.54;89.34;99066.31;5133733;28;20043;-66
2021/12/06 04:47:59;;;;;;;98.38;36.50;;;;;;;10.56;88.67;99066.16;5136131;28;20046;-66
2021/12/06 04:50:30;;;;;;;96.93;36.40;;;;;;;10.58;88.81;99060.69;5131216;28;20039;-66
2021/12/06 04:52:58;;;;;;;100.28;36.83;;;;;;;10.59;88.16;99062.31;5131097;28;20039;-66
2021/12/06 04:55:41;;;;;;;93.20;35.72;;;;;;;10.49;89.06;99054.63;5129923;28;20044;-66
2021/12/06 04:58:09;;;;;;;91.23;35.67;;;;;;;10.58;88.86;99065.97;5118898;27;20029;-66
2021/12/06 05:00:46;;;;;;;103.25;37.63;;;;;;;10.50;88.55;99064.22;5131180;27;20517;-64
2021/12/06 05:03:12;;;;;;;108.82;42.75;;;;;;;10.30;89.67;99070.97;5134836;27;20081;-65
2021/12/06 05:05:55;;;;;;;135.82;49.17;;;;;;;10.34;89.92;99077.53;5129831;27;20345;-63
2021/12/06 05:08:35;;;;;;;143.07;53.30;;;;;;;10.42;89.67;99066.94;5134749;27;20248;-64
2021/12/06 05:11:01;;;;;;;134.40;51.42;;;;;;;10.53;88.88;99063.84;5129229;27;20295;-67
2021/12/06 05:13:28;;;;;;;106.93;39.00;;;;;;;10.70;86.70;99062.72;5133379;27;20032;-64
2021/12/06 05:15:54;;;;;;;95.13;35.40;;;;;;;10.39;87.99;99060.13;5141239;27;20039;-64
2021/12/06 05:18:20;;;;;;;99.57;34.72;;;;;;;10.18;89.27;99049.34;5144359;27;20050;-66
2021/12/06 05:20:46;;;;;;;97.72;33.70;;;;;;;10.18;89.89;99049.34;5136744;27;20037;-66
2021/12/06 05:23:11;;;;;;;95.13;33.90;;;;;;;10.15;90.81;99065.56;5131519;27;20043;-63
2021/12/06 05:25:38;;;;;;;90.07;32.40;;;;;;;10.11;91.00;99073.03;5142840;27;20042;-66
2021/12/06 05:28:04;;;;;;;99.95;34.92;;;;;;;10.03;91.76;99077.56;5142114;27;20228;-64
2021/12/06 05:30:31;;;;;;;96.82;35.03;;;;;;;10.09;92.39;99079.50;5131828;27;20241;-63
2021/12/06 05:32:58;;;;;;;104.60;36.08;;;;;;;10.22;90.79;99079.78;5131191;27;20034;-63
2021/12/06 05:35:25;;;;;;;95.45;36.45;;;;;;;10.22;89.80;99070.03;5135174;27;20352;-66
2021/12/06 05:37:56;;;;;;;104.45;34.05;;;;;;;10.18;90.67;99083.75;5132721;27;20031;-63
2021/12/06 05:40:25;;;;;;;90.18;33.65;;;;;;;10.12;91.43;99081.78;5109621;27;20313;-66
2021/12/06 05:42:51;;;;;;;112.32;37.80;;;;;;;10.13;91.45;99073.69;5130704;27;20333;-66
2021/12/06 05:45:19;;;;;;;105.55;36.63;;;;;;;10.14;91.69;99093.03;5132211;27;20043;-66
2021/12/06 05:47:45;;;;;;;119.82;38.08;;;;;;;10.33;90.18;99078.53;5130416;27;20031;-67
2021/12/06 05:50:11;;;;;;;93.72;35.08;;;;;;;10.35;90.22;99082.66;5131923;27;20102;-66
2021/12/06 05:52:36;;;;;;;113.15;37.05;;;;;;;10.42;90.60;99080.16;5132897;27;20038;-63
2021/12/06 05:55:05;;;;;;;114.22;39.08;;;;;;;10.46;90.10;99082.28;5130778;27;20031;-64
2021/12/06 05:57:30;;;;;;;122.10;43.63;;;;;;;10.33;90.13;99091.78;5128845;27;20222;-66
2021/12/06 05:59:56;;;;;;;112.55;42.05;;;;;;;10.41;90.44;99092.56;5124993;27;20027;-63
2021/12/06 06:02:22;;;;;;;121.28;43.85;;;;;;;10.50;89.29;99086.22;5122939;28;20032;-66
2021/12/06 06:04:48;;;;;;;122.18;43.30;;;;;;;10.60;89.52;99085.16;5125990;27;20050;-64
2021/12/06 06:07:13;;;;;;;156.73;48.92;;;;;;;10.62;89.70;99083.97;5136462;27;20031;-63
2021/12/06 06:09:39;;;;;;;133.27;46.20;;;;;;;10.67;89.28;99089.56;5139578;27;20228;-66
2021/12/06 06:12:05;;;;;;;136.70;46.85;;;;;;;10.58;88.69;99090.63;5137031;27;20382;-66
2021/12/06 06:14:31;;;;;;;116.93;44.53;;;;;;;10.55;89.38;99081.22;5137831;27;20082;-66
2021/12/06 06:17:06;;;;;;;74.97;32.58;;;;;;;10.62;87.82;99091.09;5137164;27;20314;-66
2021/12/06 06:19:32;;;;;;;77.75;32.00;;;;;;;10.61;87.47;99092.91;5138622;27;20053;-63
2021/12/06 06:21:57;;;;;;;87.30;31.20;;;;;;;10.32;87.71;99083.00;5138873;27;20090;-66
2021/12/06 06:24:23;;;;;;;75.55;31.15;;;;;;;10.09;89.47;99090.91;5125404;27;20023;-64
2021/12/06 06:26:49;;;;;;;79.00;28.80;;;;;;;10.16;89.68;99097.16;5144029;27;20102;-66
2021/12/06 06:29:14;;;;;;;77.13;30.25;;;;;;;10.13;90.49;99101.97;5143617;27;20030;-66
2021/12/06 06:31:40;;;;;;;75.90;31.95;;;;;;;10.28;90.06;99112.66;5143710;27;20042;-66
2021/12/06 06:34:06;;;;;;;109.30;36.50;;;;;;;10.06;90.90;99101.00;5143720;27;20042;-64
2021/12/06 06:36:32;;;;;;;76.28;32.78;;;;;;;9.94;91.19;99103.22;5143184;27;20031;-64
2021/12/06 06:38:57;;;;;;;93.95;35.55;;;;;;;10.03;91.13;99120.69;5143698;27;20104;-63
2021/12/06 06:41:25;;;;;;;75.53;30.70;;;;;;;10.03;91.72;99120.69;5143273;27;20031;-63
2021/12/06 06:43:51;;;;;;;136.60;39.28;;;;;;;10.23;89.88;99123.75;5143085;27;20541;-66
2021/12/06 06:46:16;;;;;;;78.20;29.67;;;;;;;10.20;90.36;99119.63;5143341;27;20042;-63
2021/12/06 06:48:42;;;;;;;69.25;26.63;;;;;;;10.37;88.98;99103.66;5143486;27;20126;-63
2021/12/06 06:51:08;;;;;;;83.18;35.10;;;;;;;10.46;87.87;99094.69;5142694;27;20042;-66
2021/12/06 06:53:33;;;;;;;63.92;26.45;;;;;;;10.43;87.93;99085.28;5143251;27;20042;-66
2021/12/06 06:55:59;;;;;;;59.60;25.90;;;;;;;10.28;89.49;99099.41;5143400;27;20039;-63
2021/12/06 06:58:24;;;;;;;66.18;26.00;;;;;;;10.36;88.97;99099.38;5143347;27;20055;-66
2021/12/06 07:00:50;;;;;;;82.32;33.92;;;;;;;10.33;88.67;99081.19;5142610;27;20072;-64
2021/12/06 07:03:16;;;;;;;69.88;29.27;;;;;;;10.50;88.38;99106.56;5143192;27;20106;-66
2021/12/06 07:05:41;;;;;;;58.78;25.88;;;;;;;10.51;88.75;99103.75;5143283;27;20042;-63
2021/12/06 07:08:07;;;;;;;60.38;25.58;;;;;;;10.63;87.08;99087.44;5142713;27;20053;-66
2021/12/06 07:10:33;;;;;;;58.40;24.25;;;;;;;10.48;88.63;99087.41;5143121;27;20051;-66
2021/12/06 07:13:03;;;;;;;52.97;21.13;;;;;;;10.44;88.33;99083.44;5142994;27;20043;-63
2021/12/06 07:15:32;;;;;;;49.67;21.35;;;;;;;10.30;89.46;99085.00;5124002;27;20094;-63
2021/12/06 07:17:58;;;;;;;49.72;21.77;;;;;;;10.26;90.91;99096.94;5142729;27;20038;-66
2021/12/06 07:20:25;;;;;;;58.15;23.65;;;;;;;10.40;90.54;99077.69;5142518;27;20135;-66
2021/12/06 07:22:52;;;;;;;59.65;22.83;;;;;;;10.63;89.05;99077.66;5141537;27;20233;-66
2021/12/06 07:25:21;;;;;;;63.67;26.52;;;;;;;10.58;88.28;99071.25;5141828;27;20245;-67
2021/12/06 07:27:47;;;;;;;66.07;27.85;;;;;;;10.49;89.98;99066.03;5142840;27;20061;-66
2021/12/06 07:30:15;;;;;;;69.20;27.35;;;;;;;10.61;89.38;99076.22;5142721;27;20094;-67
2021/12/06 07:32:41;;;;;;;66.65;27.95;;;;;;;10.60;89.14;99075.38;5142730;27;20321;-63
2021/12/06 07:35:08;;;;;;;76.45;28.50;;;;;;;10.74;88.94;99079.06;5142755;27;20103;-66
2021/12/06 07:37:34;;;;;;;75.38;28.60;;;;;;;10.79;88.85;99082.81;5142546;27;20027;-63
2021/12/06 07:40:00;;;;;;;82.03;34.05;;;;;;;10.78;88.79;99075.88;5142699;27;20098;-66
2021/12/06 07:42:26;;;;;;;88.47;34.72;;;;;;;10.94;88.98;99085.50;5142389;27;20023;-66
2021/12/06 07:44:52;;;;;;;92.38;35.33;;;;;;;10.83;89.40;99072.69;5142407;27;20095;-63
2021/12/06 07:47:18;;;;;;;102.00;39.67;;;;;;;10.75;90.43;99073.59;5142036;27;20042;-63
2021/12/06 07:49:44;;;;;;;92.82;36.08;;;;;;;10.88;90.06;99080.91;5142495;27;20031;-63
2021/12/06 07:52:10;;;;;;;104.20;36.67;;;;;;;10.97;90.69;99079.00;5142275;27;20039;-63
2021/12/06 07:54:36;;;;;;;91.88;37.35;;;;;;;11.17;90.09;99082.78;5142340;27;20057;-64
2021/12/06 07:57:02;;;;;;;97.18;38.38;;;;;;;11.09;90.36;99069.63;5142270;27;21073;-64
2021/12/06 07:59:28;;;;;;;111.20;42.28;;;;;;;11.32;88.49;99080.13;5142529;27;20071;-66
2021/12/06 08:01:53;;;;;;;106.85;38.03;;;;;;;11.27;89.59;99072.72;5142179;27;20076;-66
2021/12/06 08:04:19;;;;;;;101.70;38.40;;;;;;;11.19;89.40;99078.13;5142506;27;20161;-66
2021/12/06 08:06:45;;;;;;;169.25;45.67;;;;;;;11.29;89.32;99060.13;5141913;27;20042;-63
2021/12/06 08:09:11;;;;;;;93.50;35.30;;;;;;;11.32;87.41;99043.84;5142255;27;20109;-66
2021/12/06 08:11:37;;;;;;;120.65;40.60;;;;;;;11.39;86.27;99050.06;5118457;27;20024;-63
2021/12/06 08:14:06;;;;;;;82.25;30.77;;;;;;;11.31;88.06;99049.34;5134690;27;20126;-64
2021/12/06 08:16:39;;;;;;;79.97;30.63;;;;;;;11.32;87.60;99058.94;5134227;27;20035;-63
2021/12/06 08:19:04;;;;;;;75.78;31.50;;;;;;;11.18;89.00;99063.22;5135819;27;20042;-66
2021/12/06 08:21:30;;;;;;;78.50;31.95;;;;;;;10.83;91.88;99072.69;5134518;27;20228;-63
2021/12/06 08:23:57;;;;;;;82.90;32.20;;;;;;;10.85;92.71;99071.50;5136294;27;20027;-63
2021/12/06 08:26:26;;;;;;;77.97;30.77;;;;;;;10.85;91.88;99065.41;5135114;27;20187;-63
2021/12/06 08:28:53;;;;;;;92.18;34.35;;;;;;;10.70;92.52;99068.00;5116020;27;20027;-66
2021/12/06 08:31:19;;;;;;;102.50;34.72;;;;;;;10.88;92.34;99065.03;5137199;27;20048;-64
2021/12/06 08:33:46;;;;;;;86.68;29.92;;;;;;;10.77;93.08;99055.69;5139863;27;20050;-64
2021/12/06 08:36:13;;;;;;;82.95;29.88;;;;;;;11.11;91.48;99067.63;5139229;27;20035;-66
2021/12/06 08:38:40;;;;;;;79.90;28.70;;;;;;;11.13;90.67;99053.19;5141065;27;20035;-64
2021/12/06 08:41:12;;;;;;;100.32;29.67;;;;;;;11.16;90.40;99057.28;5139387;27;20331;-66
2021/12/06 08:43:40;;;;;;;96.50;31.80;;;;;;;11.19;91.27;99051.63;5138522;27;20206;-66
2021/12/06 08:46:10;;;;;;;90.88;30.00;;;;;;;11.19;90.38;99052.44;5140699;27;20075;-66
2021/12/06 08:48:39;;;;;;;85.18;28.90;;;;;;;11.26;89.41;99057.00;5121301;27;20428;-66
2021/12/06 08:51:13;;;;;;;107.22;34.58;;;;;;;11.33;90.08;99053.44;5120900;27;20051;-64
2021/12/06 08:53:41;;;;;;;104.15;32.67;;;;;;;11.22;90.72;99056.56;5137457;27;20217;-64
2021/12/06 08:56:07;;;;;;;91.70;30.27;;;;;;;11.22;91.21;99061.88;5138639;27;20042;-64
2021/12/06 08:58:32;;;;;;;94.65;32.33;;;;;;;11.24;91.06;99065.16;5140936;27;20043;-65
2021/12/06 09:00:58;;;;;;;95.97;32.28;;;;;;;11.34;90.71;99049.78;5137039;27;20038;-66
2021/12/06 09:03:23;;;;;;;126.40;41.60;;;;;;;11.09;91.51;99045.78;5139760;27;20263;-66
2021/12/06 09:05:54;;;;;;;111.82;38.50;;;;;;;11.15;92.64;99055.66;5138014;27;20035;-63
2021/12/06 09:08:20;;;;;;;95.32;31.48;;;;;;;11.10;93.56;99042.13;5138733;27;20016;-66
2021/12/06 09:10:50;;;;;;;105.07;31.85;;;;;;;11.11;93.18;99025.22;5122573;27;20548;-66
2021/12/06 09:13:18;;;;;;;93.88;31.02;;;;;;;11.18;93.07;99023.47;5139750;27;20030;-64
2021/12/06 09:15:44;;;;;;;121.43;34.65;;;;;;;10.94;93.76;99021.94;5138130;27;20048;-63
2021/12/06 09:18:09;;;;;;;110.05;36.40;;;;;;;10.96;95.85;99014.63;5120995;27;20015;-66
2021/12/06 09:20:37;;;;;;;107.78;36.55;;;;;;;11.07;95.16;99018.66;5139556;27;20038;-66
2021/12/06 09:23:06;;;;;;;108.15;33.22;;;;;;;11.26;93.84;99019.91;5137039;27;20023;-64
2021/12/06 09:25:32;;;;;;;113.57;37.53;;;;;;;11.47;92.22;99015.53;5139611;27;20217;-63
2021/12/06 09:27:57;;;;;;;97.65;32.80;;;;;;;11.49;92.83;99008.22;5139074;27;20313;-66
2021/12/06 09:30:26;;;;;;;99.53;33.00;;;;;;;11.62;91.79;99022.63;5137772;27;20031;-67
2021/12/06 09:32:52;;;;;;;92.10;32.88;;;;;;;11.79;90.19;99019.59;5119761;27;20087;-64
2021/12/06 09:35:23;;;;;;;93.72;33.50;;;;;;;11.78;90.52;99017.97;5139281;27;20074;-66
2021/12/06 09:37:49;;;;;;;92.57;33.70;;;;;;;11.67;90.81;98991.91;5139026;27;20035;-63
2021/12/06 09:40:15;;;;;;;97.93;34.60;;;;;;;11.66;91.13;98982.31;5141319;27;20023;-64
2021/12/06 09:42:43;;;;;;;92.38;32.30;;;;;;;11.73;90.94;98990.31;5137282;27;20379;-64
2021/12/06 09:45:12;;;;;;;106.00;36.22;;;;;;;11.68;90.79;98984.75;5136776;27;20047;-66
2021/12/06 09:47:38;;;;;;;105.70;37.55;;;;;;;11.76;90.64;98977.50;5138072;27;20098;-66
2021/12/06 09:50:05;;;;;;;87.30;31.13;;;;;;;11.88;87.96;98969.09;5137311;27;20030;-64
2021/12/06 09:52:31;;;;;;;80.47;29.85;;;;;;;11.94;88.19;98971.81;5138217;27;20023;-63
2021/12/06 09:54:58;;;;;;;86.85;30.70;;;;;;;12.10;87.31;98973.38;5138103;27;20050;-66
2021/12/06 09:57:24;;;;;;;76.97;28.63;;;;;;;12.05;87.40;98949.25;5138316;27;20031;-66
2021/12/06 09:59:50;;;;;;;84.18;30.20;;;;;;;11.91;87.93;98968.72;5138345;27;20038;-66
2021/12/06 10:02:18;;;;;;;76.32;27.40;;;;;;;11.93;86.96;98956.06;5138747;27;20027;-66
2021/12/06 10:04:49;;;;;;;73.35;26.95;;;;;;;12.07;87.23;98971.09;5139024;27;20031;-64
2021/12/06 10:07:15;;;;;;;78.90;27.77;;;;;;;12.25;86.27;98939.63;5136502;27;20057;-64
2021/12/06 10:09:42;;;;;;;68.63;28.45;;;;;;;12.15;86.27;98937.28;5139199;27;20084;-66
2021/12/06 10:12:09;;;;;;;81.13;29.00;;;;;;;12.15;85.49;98941.78;5136907;27;20291;-66
2021/12/06 10:14:37;;;;;;;77.47;28.50;;;;;;;11.87;87.87;98932.97;5137235;27;20295;-64
2021/12/06 10:17:07;;;;;;;72.40;27.92;;;;;;;11.69;87.65;98907.66;5138112;27;20358;-63
2021/12/06 10:19:33;;;;;;;73.32;27.52;;;;;;;11.73;89.10;98919.53;5138205;27;20262;-63
2021/12/06 10:21:59;;;;;;;62.65;25.90;;;;;;;11.86;90.22;98912.75;5137898;27;20317;-66
2021/12/06 10:24:27;;;;;;;62.97;24.65;;;;;;;12.11;86.45;98904.19;5137887;27;20637;-63
2021/12/06 10:27:23;;;;;;;62.35;24.67;;;;;;;12.29;86.65;98908.19;5137805;27;20046;-66
2021/12/06 10:29:53;;;;;;;60.47;24.05;;;;;;;12.38;86.28;98910.50;5117395;27;20039;-66
2021/12/06 10:32:22;;;;;;;60.95;25.77;;;;;;;12.40;85.70;98905.84;5136753;27;20019;-66
2021/12/06 10:34:52;;;;;;;60.67;24.60;;;;;;;12.61;84.67;98910.28;5138953;27;20038;-64
2021/12/06 10:37:54;;;;;;;56.28;23.90;;;;;;;12.77;84.77;98898.53;5135798;27;20027;-64
2021/12/06 10:40:40;;;;;;;64.95;25.20;;;;;;;12.49;85.04;98900.41;5123411;27;20073;-64
2021/12/06 10:43:09;;;;;;;61.30;23.52;;;;;;;12.42;84.75;98895.03;5139639;27;20152;-63
2021/12/06 10:45:42;;;;;;;62.65;22.77;;;;;;;12.32;85.64;98898.00;5119774;27;20071;-66
2021/12/06 10:48:28;;;;;;;66.70;25.42;;;;;;;12.52;85.41;98894.69;5137085;27;20112;-64
2021/12/06 10:50:54;;;;;;;61.58;23.50;;;;;;;12.37;85.62;98906.22;5137129;27;20039;-64
2021/12/06 10:53:26;;;;;;;55.78;21.20;;;;;;;12.09;86.77;98903.56;5134840;27;20074;-63
2021/12/06 10:55:56;;;;;;;51.00;23.02;;;;;;;11.92;88.15;98899.53;5136251;27;20110;-63
2021/12/06 10:58:29;;;;;;;58.05;22.23;;;;;;;11.94;87.23;98878.13;5138692;27;20023;-63
2021/12/06 11:00:57;;;;;;;56.08;21.58;;;;;;;11.99;87.73;98873.88;5136437;27;20334;-66
2021/12/06 11:03:26;;;;;;;56.90;22.00;;;;;;;11.95;88.28;98882.44;5136829;27;20329;-66
2021/12/06 11:05:58;;;;;;;48.75;21.55;;;;;;;12.06;88.27;98879.25;5137598;27;20039;-64
2021/12/06 11:08:24;;;;;;;59.70;23.23;;;;;;;12.15;87.31;98872.78;5136208;27;20031;-66
2021/12/06 11:10:54;;;;;;;53.90;22.17;;;;;;;12.23;85.62;98866.50;5136931;27;20030;-63
2021/12/06 11:13:27;;;;;;;51.20;22.08;;;;;;;12.26;85.90;98864.28;5137541;27;20030;-63
2021/12/06 11:15:54;;;;;;;57.08;23.38;;;;;;;12.43;86.20;98860.31;5136784;27;20030;-64
2021/12/06 11:18:49;;;;;;;54.67;22.92;;;;;;;12.66;84.40;98836.16;5136856;27;20035;-66
2021/12/06 11:21:22;;;;;;;56.25;23.38;;;;;;;12.71;84.03;98831.06;5127722;27;20054;-66
2021/12/06 11:24:08;;;;;;;61.45;23.90;;;;;;;12.76;83.60;98838.44;5136144;27;20086;-66
2021/12/06 11:26:47;;;;;;;55.83;23.13;;;;;;;12.79;83.65;98844.19;5136985;27;20043;-63
2021/12/06 11:29:35;;;;;;;51.20;21.70;;;;;;;12.63;84.78;98849.00;5137249;27;20054;-64
2021/12/06 11:32:06;;;;;;;57.67;22.73;;;;;;;12.74;84.17;98835.97;5136403;27;20034;-66